Thursday, June 30, 2016
06:44 UTC
  |  Log In   |  Register Free
Airport Search:

Lewis University Airport
(KLOT)

Lewis University Airport Diagram
No Airport Diagram Available

FAA data valid effective May 26 2016 - Jul 21 2016 (unless otherwise noted).

 
 
 
 
 
 
 
 
 
 
 
 
 
 
Current Aviation Weather for KLOT

Weather Summary


The most recent METAR observation for LOT was updated at: 12:55 UTC
METAR for KLOT is not available. Closest METAR is for KJOT
KLOT  (most recent observation was updatred at 30:06 UTC)
300635Z AUTO 16005KT 10SM CLR 15/12 A3006 RMK AO2 T01520117

KJOT  (6.4 nm NE)   (most recent observation was updated at 30:06 UTC)
300635Z AUTO 00000KT 10SM CLR 14/13 A3007 RMK AO2 T01390130

KC09  (18.2 nm NE)   (most recent observation was updated at 30:06 UTC)
300635Z AUTO 00000KT 10SM CLR 15/13 A3006 RMK AO2 T01510127

TAF for KLOT is not available.
KMDW  (18.8 nm SW)   (most recent observation was updatred at 30:05 UTC)
300525Z 3006/0106 19004KT P6SM FEW070 FM301600 21007KT P6SM FEW060 SCT250 FM010200 23007KT P6SM VCTS SCT040CB BKN080 TEMPO 0103/0105 4SM TSRA BKN040CB


KDPA  (19.2 nm SE)   (most recent observation was updatred at 30:05 UTC)
300525Z 3006/0106 VRB03KT P6SM FEW070 FM301600 21008KT P6SM FEW060 SCT250 FM010100 23007KT P6SM VCSH SCT040 BKN080 TEMPO 0102/0104 4SM TSRA BKN040CB FM010500 30006KT P6SM BKN020


KORD  (23.9 nm SW)   (most recent observation was updatred at 30:05 UTC)
300525Z 3006/0112 VRB03KT P6SM FEW070 FM301600 21008KT P6SM FEW060 SCT250 FM010200 23007KT P6SM VCTS SCT040CB BKN080 TEMPO 0103/0105 4SM TSRA BKN040CB FM010600 30007KT P6SM VCSH BKN040 FM010900 33010KT P6SM BKN020
GlobalAir.com is loading additional information.
 Current Weather at LOT
65.0 F° (18.4 C°)

North winds at 0.0 mph
Pressure:
30.07 in
Humidity:
61%
Wind:
North at 0.0 mph
Dew Point:
51.3 F° (10.7 C°)
Visibility:
10.00 mi
LOT NOAA Radar




Find All Airport Services Find A Hotel Find A Rental Car Find A Golf Course Find A Restaurant $100 Hamburger



Airport Weather Forecast for KLOT

Translated METAR for KLOT (0635 UTC)
METAR:
KLOT 300635Z AUTO 16005KT 10SM CLR 15/12 A3006 RMK AO2 T01520117
Conditions at:
KLOT (Lewis University, IL) observed 0635 UTC 30 June 2016
Temperature:
15°C (59°F)
Dewpoint:
12°C (53.6°F) [RH = 82.3]
Pressure:
30.06 inches Hg (1017.9 mb)
Winds:
from the SSE (160 degrees) at 5.8 mph (5 knots: 2.6 m/s)
Visibility:
10 mile(s)
Ceiling:
at least 12,000 feet AGL
Clouds:
Clear below 12,000 feet AGL
Remarks:
site is un-manned
site is automated and HAS a precipitation sensor

FBO's on the Field
FBO Company Facility Photos Services Transportation Aviation Fuel Prices: Prices include tax
Catering Weather Repair Courtesy Rental Type 100LL JetA JetA+ MOGAS 8087
 
Lewis University Airport

This FBO has not yet been rated
FS:Phillips 66
Last Updated: Jun-27
Login to update fuel prices
SS:
Contact Lewis University AirportMore FBO Information
 
Add another FBO Facility Photos Catering Weather Repair Courtesy Rental Type 100LL JetA JetA+ MOGAS 8087
Services Transportation Aviation Fuel Prices: Prices include tax


model-print
model-print
model-print
model-print